createdAt,value
2019-06-15T00:00:58.218Z,4.00
2019-06-15T00:01:58.166Z,4.40
2019-06-15T00:02:58.156Z,4.70
2019-06-15T00:03:58.146Z,4.10
2019-06-15T00:04:58.141Z,4.00
2019-06-15T00:05:58.148Z,4.00
2019-06-15T00:06:58.246Z,3.70
2019-06-15T00:07:58.104Z,3.90
2019-06-15T00:08:58.112Z,4.30
2019-06-15T00:09:58.074Z,4.00
2019-06-15T00:10:58.093Z,4.30
2019-06-15T00:11:58.057Z,4.10
2019-06-15T00:12:58.044Z,3.80
2019-06-15T00:13:58.029Z,3.90
2019-06-15T00:14:58.017Z,4.00
2019-06-15T00:15:58.030Z,3.90
2019-06-15T00:16:58.016Z,4.20
2019-06-15T00:17:57.990Z,4.00
2019-06-15T00:18:57.980Z,4.40
2019-06-15T00:19:57.965Z,4.00
2019-06-15T00:20:57.970Z,3.90
2019-06-15T00:21:57.958Z,4.20
2019-06-15T00:22:57.934Z,4.10
2019-06-15T00:23:57.918Z,4.00
2019-06-15T00:24:57.910Z,3.90
2019-06-15T00:25:57.919Z,3.90
2019-06-15T00:26:57.883Z,3.90
2019-06-15T00:27:57.885Z,4.70
2019-06-15T00:28:57.865Z,4.70
2019-06-15T00:29:57.855Z,5.20
2019-06-15T00:30:57.875Z,4.30
2019-06-15T00:31:57.856Z,4.10
2019-06-15T00:32:57.863Z,4.00
2019-06-15T00:33:57.806Z,3.80
2019-06-15T00:34:57.792Z,4.10
2019-06-15T00:35:57.805Z,4.00
2019-06-15T00:36:57.785Z,4.20
2019-06-15T00:37:57.763Z,3.90
2019-06-15T00:38:57.753Z,4.50
2019-06-15T00:39:57.742Z,4.50
2019-06-15T00:40:57.750Z,4.00
2019-06-15T00:41:57.711Z,4.40
2019-06-15T00:42:57.708Z,4.00
2019-06-15T00:43:57.703Z,4.20
2019-06-15T00:44:57.711Z,4.40
2019-06-15T00:45:57.692Z,4.20
2019-06-15T00:46:57.679Z,4.30
2019-06-15T00:47:57.645Z,4.30
2019-06-15T00:48:57.640Z,4.00
2019-06-15T00:49:57.636Z,4.00
2019-06-15T00:50:57.619Z,4.20
2019-06-15T00:51:57.626Z,4.00
2019-06-15T00:52:57.593Z,4.40
2019-06-15T00:53:57.577Z,4.00
2019-06-15T00:54:57.568Z,4.40
2019-06-15T00:55:57.558Z,4.40
2019-06-15T00:56:57.566Z,4.50
2019-06-15T00:57:57.541Z,5.20
2019-06-15T00:58:57.521Z,4.90
2019-06-15T00:59:57.514Z,5.40
2019-06-15T01:00:57.505Z,5.20
2019-06-15T01:01:57.526Z,5.20
2019-06-15T01:02:57.490Z,5.50
2019-06-15T01:03:57.479Z,4.30
2019-06-15T01:04:57.458Z,4.70
2019-06-15T01:05:57.450Z,4.30
2019-06-15T01:06:57.453Z,4.40
2019-06-15T01:07:57.441Z,4.40
2019-06-15T01:08:57.418Z,4.60
2019-06-15T01:09:57.411Z,4.10
2019-06-15T01:10:57.400Z,4.70
2019-06-15T01:11:57.406Z,4.60
2019-06-15T01:12:57.374Z,4.60
2019-06-15T01:13:57.361Z,5.30
2019-06-15T01:14:57.389Z,4.90
2019-06-15T01:15:57.343Z,4.70
2019-06-15T01:16:57.348Z,4.50
2019-06-15T01:17:57.323Z,4.50
2019-06-15T01:18:57.311Z,5.20
2019-06-15T01:19:57.299Z,5.10
2019-06-15T01:20:57.293Z,5.00
2019-06-15T01:21:57.307Z,5.00
2019-06-15T01:22:57.273Z,4.70
2019-06-15T01:23:57.259Z,5.20
2019-06-15T01:25:05.723Z,5.00
2019-06-15T01:25:58.241Z,4.90
2019-06-15T01:26:57.241Z,4.70
2019-06-15T01:27:57.216Z,4.70
2019-06-15T01:28:57.205Z,4.80
2019-06-15T01:29:57.198Z,4.80
2019-06-15T01:30:57.192Z,4.60
2019-06-15T01:31:57.189Z,4.60
2019-06-15T01:32:57.164Z,4.40
2019-06-15T01:33:57.155Z,4.80
2019-06-15T01:34:57.145Z,4.60
2019-06-15T01:35:57.129Z,4.30
2019-06-15T01:36:57.142Z,4.80
2019-06-15T01:37:57.104Z,4.50
2019-06-15T01:38:57.094Z,4.40
2019-06-15T01:39:57.086Z,4.50
2019-06-15T01:40:57.077Z,4.60
2019-06-15T01:41:57.067Z,4.40
2019-06-15T01:42:57.081Z,4.40
2019-06-15T01:43:57.044Z,4.30
2019-06-15T01:44:57.032Z,4.50
2019-06-15T01:45:57.018Z,4.90
2019-06-15T01:46:57.021Z,4.30
2019-06-15T01:47:57.019Z,4.60
2019-06-15T01:48:56.989Z,4.30
2019-06-15T01:49:56.982Z,4.50
2019-06-15T01:50:56.965Z,4.60
2019-06-15T01:51:56.960Z,5.00
2019-06-15T01:52:56.967Z,4.80
2019-06-15T01:53:56.966Z,4.90
2019-06-15T01:54:56.931Z,4.80
2019-06-15T01:55:56.919Z,4.60
2019-06-15T01:56:56.903Z,4.60
2019-06-15T01:57:56.913Z,4.50
2019-06-15T01:58:56.879Z,5.10
2019-06-15T01:59:56.875Z,5.00
2019-06-15T02:00:56.866Z,4.50
2019-06-15T02:01:56.871Z,4.40
2019-06-15T02:02:56.861Z,4.70
2019-06-15T02:03:56.833Z,5.00
2019-06-15T02:04:56.822Z,4.70
2019-06-15T02:05:56.813Z,5.10
2019-06-15T02:06:56.805Z,5.10
2019-06-15T02:07:56.807Z,5.10
2019-06-15T02:08:56.776Z,5.00
2019-06-15T02:09:56.767Z,4.80
2019-06-15T02:10:56.753Z,4.90
2019-06-15T02:11:56.743Z,5.30
2019-06-15T02:12:56.757Z,4.50
2019-06-15T02:13:56.727Z,4.80
2019-06-15T02:14:56.718Z,4.20
2019-06-15T02:15:56.709Z,3.90
2019-06-15T02:16:56.709Z,4.10
2019-06-15T02:17:56.697Z,3.80
2019-06-15T02:18:56.686Z,3.90
2019-06-15T02:19:56.663Z,4.30
2019-06-15T02:20:56.649Z,4.00
2019-06-15T02:21:56.635Z,3.90
2019-06-15T02:22:56.640Z,4.10
2019-06-15T02:23:56.614Z,4.10
2019-06-15T02:24:56.611Z,4.40
2019-06-15T02:25:56.598Z,3.60
2019-06-15T02:26:56.613Z,3.80
2019-06-15T02:27:56.607Z,4.10
2019-06-15T02:28:56.565Z,3.80
2019-06-15T02:29:56.550Z,3.50
2019-06-15T02:30:56.544Z,3.80
2019-06-15T02:31:56.531Z,3.50
2019-06-15T02:32:56.523Z,3.50
2019-06-15T02:33:56.536Z,3.60
2019-06-15T02:34:56.492Z,3.40
2019-06-15T02:35:56.487Z,3.70
2019-06-15T02:36:56.476Z,3.20
2019-06-15T02:37:56.471Z,3.40
2019-06-15T02:38:56.479Z,3.70
2019-06-15T02:39:56.461Z,3.60
2019-06-15T02:40:56.430Z,3.50
2019-06-15T02:41:56.416Z,3.90
2019-06-15T02:42:56.406Z,3.80
2019-06-15T02:43:56.417Z,3.70
2019-06-15T02:44:56.387Z,3.70
2019-06-15T02:45:56.379Z,4.00
2019-06-15T02:46:56.369Z,3.50
2019-06-15T02:47:56.363Z,3.90
2019-06-15T02:48:56.367Z,4.20
2019-06-15T02:49:56.332Z,3.40
2019-06-15T02:50:56.323Z,3.40
2019-06-15T02:51:56.308Z,3.70
2019-06-15T02:52:56.305Z,3.40
2019-06-15T02:53:56.301Z,3.50
2019-06-15T02:54:56.270Z,3.60
2019-06-15T02:55:56.266Z,4.00
2019-06-15T02:56:56.253Z,3.80
2019-06-15T02:57:56.247Z,3.60
2019-06-15T02:58:56.253Z,3.50
2019-06-15T02:59:56.222Z,3.40
2019-06-15T03:00:56.212Z,3.60
2019-06-15T03:01:56.196Z,3.50
2019-06-15T03:02:56.207Z,3.80
2019-06-15T03:03:56.191Z,3.90
2019-06-15T03:04:56.167Z,3.70
2019-06-15T03:05:56.157Z,3.60
2019-06-15T03:06:56.137Z,3.40
2019-06-15T03:07:56.128Z,3.50
2019-06-15T03:08:56.141Z,3.50
2019-06-15T03:09:56.116Z,3.80
2019-06-15T03:10:56.109Z,3.50
2019-06-15T03:11:56.093Z,3.60
2019-06-15T03:12:56.072Z,3.80
2019-06-15T03:13:56.128Z,3.50
2019-06-15T03:14:56.071Z,3.80
2019-06-15T03:15:56.064Z,3.90
2019-06-15T03:16:56.083Z,3.70
2019-06-15T03:17:56.029Z,3.90
2019-06-15T03:18:56.036Z,4.00
2019-06-15T03:19:55.998Z,3.80
2019-06-15T03:20:55.983Z,3.90
2019-06-15T03:21:55.974Z,4.20
2019-06-15T03:22:55.971Z,3.60
2019-06-15T03:23:55.975Z,3.90
2019-06-15T03:24:55.939Z,3.90
2019-06-15T03:26:05.169Z,3.70
2019-06-15T03:26:56.918Z,3.80
2019-06-15T03:27:55.909Z,3.60
2019-06-15T03:28:55.922Z,3.90
2019-06-15T03:29:55.891Z,4.00
2019-06-15T03:30:55.880Z,4.20
2019-06-15T03:31:55.869Z,3.90
2019-06-15T03:32:55.858Z,4.50
2019-06-15T03:33:55.856Z,4.20
2019-06-15T03:34:55.827Z,4.00
2019-06-15T03:35:55.818Z,4.30
2019-06-15T03:36:55.813Z,4.30
2019-06-15T03:37:55.801Z,4.40
2019-06-15T03:38:55.826Z,4.40
2019-06-15T03:39:55.780Z,4.40
2019-06-15T03:40:55.767Z,4.50
2019-06-15T03:41:55.757Z,4.20
2019-06-15T03:42:55.752Z,4.70
2019-06-15T03:43:55.732Z,4.40
2019-06-15T03:44:55.738Z,4.30
2019-06-15T03:45:55.722Z,4.50
2019-06-15T03:46:55.704Z,4.30
2019-06-15T03:47:55.685Z,4.30
2019-06-15T03:48:55.677Z,4.70
2019-06-15T03:49:55.687Z,4.70
2019-06-15T03:50:55.663Z,4.20
2019-06-15T03:51:55.657Z,4.30
2019-06-15T03:52:55.630Z,4.60
2019-06-15T03:53:55.618Z,3.70
2019-06-15T03:54:55.639Z,4.40
2019-06-15T03:55:55.601Z,4.30
2019-06-15T03:56:55.585Z,4.20
2019-06-15T03:57:55.573Z,4.30
2019-06-15T03:58:55.563Z,4.20
2019-06-15T03:59:55.574Z,4.90
2019-06-15T04:00:55.543Z,4.40
2019-06-15T04:01:55.552Z,4.60
2019-06-15T04:02:55.519Z,4.10
2019-06-15T04:03:55.509Z,4.20
2019-06-15T04:04:55.525Z,4.40
2019-06-15T04:05:55.494Z,3.90
2019-06-15T04:06:55.482Z,3.70
2019-06-15T04:07:55.471Z,4.10
2019-06-15T04:08:55.453Z,3.90
2019-06-15T04:09:55.460Z,3.80
2019-06-15T04:10:55.439Z,4.00
2019-06-15T04:11:55.425Z,4.10
2019-06-15T04:12:55.416Z,3.80
2019-06-15T04:13:55.398Z,4.00
2019-06-15T04:14:55.428Z,4.10
2019-06-15T04:15:55.380Z,4.10
2019-06-15T04:16:55.376Z,4.20
2019-06-15T04:17:55.364Z,4.50
2019-06-15T04:18:55.359Z,4.20
2019-06-15T04:19:55.359Z,4.40
2019-06-15T04:20:55.328Z,4.60
2019-06-15T04:21:55.314Z,4.30
2019-06-15T04:22:55.303Z,4.20
2019-06-15T04:23:55.296Z,4.30
2019-06-15T04:24:55.329Z,4.00
2019-06-15T04:25:55.280Z,4.20
2019-06-15T04:26:55.262Z,4.10
2019-06-15T04:27:55.259Z,4.20
2019-06-15T04:28:55.242Z,3.90
2019-06-15T04:29:55.260Z,3.80
2019-06-15T04:30:55.230Z,4.40
2019-06-15T04:31:55.227Z,3.80
2019-06-15T04:32:55.195Z,3.70
2019-06-15T04:33:55.182Z,4.20
2019-06-15T04:34:55.219Z,3.90
2019-06-15T04:35:55.164Z,4.10
2019-06-15T04:36:55.153Z,4.00
2019-06-15T04:37:55.174Z,4.10
2019-06-15T04:38:55.133Z,3.70
2019-06-15T04:39:55.145Z,3.60
2019-06-15T04:40:55.108Z,3.50
2019-06-15T04:41:55.094Z,3.60
2019-06-15T04:42:55.102Z,3.80
2019-06-15T04:43:55.086Z,3.60
2019-06-15T04:44:55.084Z,3.90
2019-06-15T04:45:55.052Z,3.80
2019-06-15T04:46:55.038Z,4.30
2019-06-15T04:47:55.061Z,4.20
2019-06-15T04:48:55.024Z,3.70
2019-06-15T04:49:55.045Z,4.00
2019-06-15T04:50:55.004Z,4.00
2019-06-15T04:51:54.990Z,3.50
2019-06-15T04:52:54.976Z,3.90
2019-06-15T04:53:54.972Z,3.60
2019-06-15T04:54:54.955Z,3.50
2019-06-15T04:55:54.959Z,3.90
2019-06-15T04:56:54.935Z,3.80
2019-06-15T04:57:54.926Z,3.30
2019-06-15T04:58:54.916Z,3.70
2019-06-15T04:59:54.894Z,4.30
2019-06-15T05:00:54.924Z,4.00
2019-06-15T05:01:54.881Z,3.70
2019-06-15T05:02:54.867Z,3.40
2019-06-15T05:03:54.853Z,3.50
2019-06-15T05:04:54.842Z,3.50
2019-06-15T05:05:54.846Z,3.80
2019-06-15T05:06:54.815Z,3.70
2019-06-15T05:07:54.809Z,3.90
2019-06-15T05:08:54.799Z,3.80
2019-06-15T05:09:54.793Z,3.90
2019-06-15T05:10:59.639Z,4.20
2019-06-15T05:11:55.763Z,3.60
2019-06-15T05:12:54.750Z,3.70
2019-06-15T05:13:54.738Z,4.00
2019-06-15T05:14:54.735Z,3.80
2019-06-15T05:15:54.737Z,3.60
2019-06-15T05:16:54.714Z,3.80
2019-06-15T05:17:54.695Z,3.70
2019-06-15T05:18:54.734Z,4.00
2019-06-15T05:19:54.680Z,3.80
2019-06-15T05:20:54.699Z,3.80
2019-06-15T05:21:54.657Z,3.70
2019-06-15T05:22:54.647Z,3.60
2019-06-15T05:23:54.680Z,3.80
2019-06-15T05:24:54.619Z,3.50
2019-06-15T05:25:54.620Z,4.00
2019-06-15T05:27:05.835Z,3.60
2019-06-15T05:27:55.582Z,3.90
2019-06-15T05:28:54.588Z,4.00
2019-06-15T05:29:56.588Z,4.10
2019-06-15T05:30:54.727Z,4.10
2019-06-15T05:31:54.542Z,3.80
2019-06-15T05:32:54.535Z,3.70
2019-06-15T05:33:54.535Z,3.90
2019-06-15T05:34:54.511Z,3.70
2019-06-15T05:35:54.498Z,3.80
2019-06-15T05:36:54.524Z,3.50
2019-06-15T05:37:54.472Z,3.70
2019-06-15T05:38:54.459Z,3.80
2019-06-15T05:39:54.448Z,4.40
2019-06-15T05:40:54.440Z,4.10
2019-06-15T05:41:54.446Z,4.00
2019-06-15T05:42:54.419Z,3.80
2019-06-15T05:43:54.408Z,3.90
2019-06-15T05:44:54.395Z,3.80
2019-06-15T05:45:54.376Z,3.90
2019-06-15T05:46:54.403Z,4.20
2019-06-15T05:47:54.439Z,4.50
2019-06-15T05:48:54.347Z,4.10
2019-06-15T05:49:54.349Z,4.10
2019-06-15T05:50:54.320Z,4.10
2019-06-15T05:51:54.334Z,4.00
2019-06-15T05:52:54.303Z,4.00
2019-06-15T05:53:54.299Z,4.00
2019-06-15T05:54:54.281Z,4.20
2019-06-15T05:55:54.268Z,4.00
2019-06-15T05:56:54.273Z,4.70
2019-06-15T05:57:54.243Z,4.20
2019-06-15T05:58:54.229Z,4.00
2019-06-15T05:59:54.249Z,4.10
2019-06-15T06:00:54.212Z,3.90
2019-06-15T06:01:54.234Z,3.90
2019-06-15T06:02:54.186Z,4.00
2019-06-15T06:03:54.178Z,3.90
2019-06-15T06:04:54.168Z,4.80
2019-06-15T06:05:54.164Z,4.30
2019-06-15T06:06:54.170Z,4.60
2019-06-15T06:07:54.138Z,4.10
2019-06-15T06:08:54.123Z,4.00
2019-06-15T06:09:54.131Z,4.30
2019-06-15T06:10:54.100Z,4.10
2019-06-15T06:11:54.111Z,3.90
2019-06-15T06:12:54.082Z,3.90
2019-06-15T06:13:54.073Z,4.30
2019-06-15T06:14:54.061Z,4.10
2019-06-15T06:15:54.052Z,3.90
2019-06-15T06:16:54.059Z,4.10
2019-06-15T06:17:54.022Z,4.20
2019-06-15T06:18:54.029Z,4.20
2019-06-15T06:19:54.005Z,4.20
2019-06-15T06:20:53.991Z,4.20
2019-06-15T06:21:54.001Z,4.30
2019-06-15T06:22:53.995Z,4.10
2019-06-15T06:23:53.968Z,4.10
2019-06-15T06:24:53.953Z,4.00
2019-06-15T06:25:53.941Z,3.90
2019-06-15T06:26:53.955Z,4.20
2019-06-15T06:27:53.916Z,4.40
2019-06-15T06:28:57.226Z,4.20
2019-06-15T06:29:53.890Z,4.50
2019-06-15T06:30:53.878Z,3.80
2019-06-15T06:31:53.875Z,4.10
2019-06-15T06:32:53.901Z,4.10
2019-06-15T06:33:53.854Z,3.70
2019-06-15T06:34:53.835Z,4.00
2019-06-15T06:35:53.828Z,3.90
2019-06-15T06:36:53.835Z,3.70
2019-06-15T06:37:53.829Z,3.80
2019-06-15T06:38:53.798Z,3.50
2019-06-15T06:39:53.785Z,3.70
2019-06-15T06:40:53.773Z,3.60
2019-06-15T06:41:53.767Z,3.40
2019-06-15T06:42:53.771Z,3.70
2019-06-15T06:43:53.765Z,3.40
2019-06-15T06:44:53.737Z,3.50
2019-06-15T06:45:53.724Z,3.70
2019-06-15T06:46:53.721Z,3.30
2019-06-15T06:47:53.728Z,3.30
2019-06-15T06:48:53.685Z,3.60
2019-06-15T06:49:53.672Z,3.40
2019-06-15T06:50:53.680Z,3.50
2019-06-15T06:51:53.663Z,3.50
2019-06-15T06:52:53.661Z,3.20
2019-06-15T06:53:53.629Z,3.00
2019-06-15T06:54:53.688Z,3.40
2019-06-15T06:55:53.721Z,3.40
2019-06-15T06:56:53.719Z,3.30
2019-06-15T06:57:57.134Z,3.20
2019-06-15T06:58:53.608Z,3.40
2019-06-15T06:59:53.568Z,3.20
2019-06-15T07:00:53.567Z,3.20
2019-06-15T07:01:53.578Z,3.30
2019-06-15T07:02:53.557Z,3.00
2019-06-15T07:03:53.531Z,3.20
2019-06-15T07:04:53.518Z,2.90
2019-06-15T07:05:53.531Z,2.90
2019-06-15T07:06:53.523Z,2.90
2019-06-15T07:07:53.478Z,3.10
2019-06-15T07:08:53.473Z,3.40
2019-06-15T07:09:53.551Z,2.90
2019-06-15T07:10:53.458Z,2.90
2019-06-15T07:11:53.453Z,3.00
2019-06-15T07:12:53.464Z,2.80
2019-06-15T07:13:53.431Z,2.90
2019-06-15T07:14:53.422Z,2.80
2019-06-15T07:15:53.395Z,2.60
2019-06-15T07:16:53.382Z,2.40
2019-06-15T07:17:53.444Z,2.40
2019-06-15T07:18:53.366Z,2.50
2019-06-15T07:19:53.383Z,2.80
2019-06-15T07:20:53.344Z,2.70
2019-06-15T07:21:53.328Z,2.40
2019-06-15T07:22:53.323Z,2.50
2019-06-15T07:23:53.379Z,2.70
2019-06-15T07:24:53.300Z,2.70
2019-06-15T07:25:53.307Z,2.70
2019-06-15T07:26:53.284Z,2.70
2019-06-15T07:28:07.198Z,2.80
2019-06-15T07:28:54.272Z,2.70
2019-06-15T07:29:53.260Z,2.60
2019-06-15T07:30:53.285Z,2.70
2019-06-15T07:31:53.235Z,2.60
2019-06-15T07:32:53.220Z,2.40
2019-06-15T07:33:53.212Z,2.50
2019-06-15T07:34:53.188Z,2.60
2019-06-15T07:35:53.199Z,2.30
2019-06-15T07:36:53.211Z,2.50
2019-06-15T07:37:53.394Z,2.60
2019-06-15T07:38:53.184Z,2.50
2019-06-15T07:39:53.151Z,2.50
2019-06-15T07:40:53.223Z,2.30
2019-06-15T07:41:53.158Z,2.30
2019-06-15T07:42:53.124Z,2.10
2019-06-15T07:43:53.121Z,2.30
2019-06-15T07:44:53.141Z,2.00
2019-06-15T07:45:53.082Z,2.30
2019-06-15T07:46:53.064Z,2.20
2019-06-15T07:47:53.064Z,2.30
2019-06-15T07:48:53.062Z,2.20
2019-06-15T07:49:53.042Z,1.90
2019-06-15T07:50:53.081Z,2.10
2019-06-15T07:51:53.022Z,1.80
2019-06-15T07:52:53.007Z,2.10
2019-06-15T07:53:52.983Z,2.00
2019-06-15T07:54:53.062Z,2.00
2019-06-15T07:55:52.991Z,2.00
2019-06-15T07:56:52.963Z,1.90
2019-06-15T07:57:52.949Z,2.00
2019-06-15T07:58:52.946Z,1.90
2019-06-15T07:59:52.950Z,2.10
2019-06-15T08:00:52.941Z,2.20
2019-06-15T08:01:52.922Z,2.00
2019-06-15T08:02:52.907Z,1.90
2019-06-15T08:03:52.899Z,1.50
2019-06-15T08:04:52.902Z,1.60
2019-06-15T08:05:52.866Z,1.60
2019-06-15T08:06:52.855Z,1.50
2019-06-15T08:07:52.842Z,1.50
2019-06-15T08:08:52.878Z,1.50
2019-06-15T08:09:52.837Z,1.40
2019-06-15T08:10:52.815Z,1.10
2019-06-15T08:11:52.813Z,1.20
2019-06-15T08:12:52.881Z,1.10
2019-06-15T08:13:52.873Z,1.20
2019-06-15T08:14:52.788Z,1.10
2019-06-15T08:15:52.795Z,1.30
2019-06-15T08:16:52.775Z,1.00
2019-06-15T08:17:52.746Z,1.20
2019-06-15T08:18:52.764Z,0.90
2019-06-15T08:19:52.725Z,1.00
2019-06-15T08:20:52.741Z,1.00
2019-06-15T08:21:52.719Z,0.90
2019-06-15T08:22:52.697Z,0.90
2019-06-15T08:23:52.693Z,0.90
2019-06-15T08:24:52.674Z,1.00
2019-06-15T08:25:52.756Z,0.80
2019-06-15T08:26:52.711Z,0.70
2019-06-15T08:27:52.675Z,0.90
2019-06-15T08:28:52.629Z,0.80
2019-06-15T08:29:52.618Z,1.00
2019-06-15T08:30:52.791Z,0.70
2019-06-15T08:31:52.593Z,1.00
2019-06-15T08:32:52.609Z,0.90
2019-06-15T08:33:52.592Z,0.90
2019-06-15T08:34:52.562Z,1.00
2019-06-15T08:35:52.555Z,0.70
2019-06-15T08:36:52.576Z,1.10
2019-06-15T08:37:52.563Z,0.90
2019-06-15T08:38:52.545Z,1.00
2019-06-15T08:39:52.531Z,0.90
2019-06-15T08:40:52.537Z,0.80
2019-06-15T08:41:52.518Z,0.80
2019-06-15T08:42:52.509Z,0.90
2019-06-15T08:43:52.473Z,0.90
2019-06-15T08:44:52.498Z,0.90
2019-06-15T08:45:52.463Z,0.90
2019-06-15T08:46:52.477Z,0.90
2019-06-15T08:47:52.444Z,0.80
2019-06-15T08:48:52.427Z,0.70
2019-06-15T08:49:52.465Z,0.90
2019-06-15T08:50:52.417Z,0.80
2019-06-15T08:51:52.407Z,0.90
2019-06-15T08:52:52.404Z,0.90
2019-06-15T08:53:52.387Z,0.90
2019-06-15T08:54:52.404Z,1.00
2019-06-15T08:55:52.672Z,1.00
2019-06-15T08:56:52.423Z,0.70
2019-06-15T08:57:52.385Z,1.00
2019-06-15T08:58:55.577Z,0.90
2019-06-15T08:59:52.385Z,0.80
2019-06-15T09:00:52.418Z,0.80
2019-06-15T09:01:52.327Z,0.70
2019-06-15T09:02:52.310Z,0.80
2019-06-15T09:03:52.326Z,0.70
2019-06-15T09:04:52.323Z,0.80
2019-06-15T09:05:52.288Z,0.90
2019-06-15T09:06:52.323Z,0.80
2019-06-15T09:07:52.308Z,0.90
2019-06-15T09:08:52.270Z,0.90
2019-06-15T09:09:52.313Z,0.80
2019-06-15T09:10:52.255Z,1.00
2019-06-15T09:11:52.232Z,0.90
2019-06-15T09:12:52.229Z,0.80
2019-06-15T09:13:52.217Z,1.00
2019-06-15T09:14:52.224Z,0.80
2019-06-15T09:15:52.200Z,0.80
2019-06-15T09:16:52.199Z,0.90
2019-06-15T09:17:52.189Z,0.90
2019-06-15T09:18:52.186Z,1.00
2019-06-15T09:19:52.229Z,0.90
2019-06-15T09:20:52.155Z,0.90
2019-06-15T09:21:52.187Z,0.70
2019-06-15T09:22:52.143Z,1.00
2019-06-15T09:23:52.185Z,0.90
2019-06-15T09:24:52.154Z,0.80
2019-06-15T09:25:52.136Z,0.90
2019-06-15T09:26:52.110Z,1.00
2019-06-15T09:27:52.142Z,1.00
2019-06-15T09:28:52.092Z,0.90
2019-06-15T09:29:52.119Z,0.90
2019-06-15T09:30:52.092Z,0.90
2019-06-15T09:31:52.075Z,0.90
2019-06-15T09:32:52.065Z,0.90
2019-06-15T09:33:52.063Z,0.90
2019-06-15T09:34:52.062Z,1.10
2019-06-15T09:35:52.069Z,0.90
2019-06-15T09:36:52.065Z,0.80
2019-06-15T09:37:52.024Z,0.90
2019-06-15T09:38:52.019Z,0.80
2019-06-15T09:39:52.014Z,0.90
2019-06-15T09:40:52.017Z,0.90
2019-06-15T09:41:51.984Z,0.90
2019-06-15T09:42:51.980Z,0.90
2019-06-15T09:43:51.982Z,1.00
2019-06-15T09:44:51.975Z,0.80
2019-06-15T09:45:52.012Z,1.00
2019-06-15T09:46:51.992Z,0.90
2019-06-15T09:47:52.030Z,0.80
2019-06-15T09:48:51.958Z,0.90
2019-06-15T09:49:51.942Z,0.90
2019-06-15T09:50:51.971Z,1.00
2019-06-15T09:51:51.941Z,1.00
2019-06-15T09:52:51.916Z,1.00
2019-06-15T09:53:51.891Z,1.00
2019-06-15T09:54:51.888Z,1.20
2019-06-15T09:55:51.894Z,1.00
2019-06-15T09:56:51.862Z,0.90
2019-06-15T09:57:51.851Z,0.90
2019-06-15T09:58:51.842Z,1.10
2019-06-15T09:59:51.882Z,0.90
2019-06-15T10:00:51.867Z,1.00
2019-06-15T10:01:51.823Z,0.80
2019-06-15T10:02:51.808Z,0.90
2019-06-15T10:03:51.802Z,1.00
2019-06-15T10:04:51.800Z,0.90
2019-06-15T10:05:51.808Z,0.90
2019-06-15T10:06:51.772Z,1.00
2019-06-15T10:07:51.759Z,0.90
2019-06-15T10:08:51.761Z,0.70
2019-06-15T10:09:51.769Z,0.90
2019-06-15T10:10:51.753Z,0.90
2019-06-15T10:11:51.728Z,0.80
2019-06-15T10:12:51.712Z,1.10
2019-06-15T10:13:51.706Z,0.80
2019-06-15T10:14:51.713Z,0.80
2019-06-15T10:15:51.723Z,0.80
2019-06-15T10:16:51.695Z,1.80
2019-06-15T10:17:51.678Z,0.90
2019-06-15T10:18:51.671Z,0.90
2019-06-15T10:19:51.693Z,0.90
2019-06-15T10:20:51.662Z,0.80
2019-06-15T10:21:51.629Z,0.80
2019-06-15T10:22:51.635Z,0.90
2019-06-15T10:23:51.614Z,0.90
2019-06-15T10:24:51.653Z,0.90
2019-06-15T10:25:54.169Z,0.90
2019-06-15T10:26:51.580Z,0.90
2019-06-15T10:27:51.572Z,0.90
2019-06-15T10:28:51.563Z,1.00
2019-06-15T10:29:51.551Z,1.00
2019-06-15T10:30:51.537Z,1.00
2019-06-15T10:31:51.577Z,0.90
2019-06-15T10:32:51.536Z,1.10
2019-06-15T10:33:51.534Z,0.80
2019-06-15T10:34:51.502Z,1.00
2019-06-15T10:35:51.501Z,1.00
2019-06-15T10:36:51.492Z,0.90
2019-06-15T10:37:51.468Z,1.00
2019-06-15T10:38:51.450Z,1.00
2019-06-15T10:39:51.443Z,0.80
2019-06-15T10:40:51.435Z,0.90
2019-06-15T10:41:51.465Z,1.00
2019-06-15T10:42:51.413Z,0.90
2019-06-15T10:43:51.406Z,0.90
2019-06-15T10:44:51.393Z,1.10
2019-06-15T10:45:51.398Z,1.00
2019-06-15T10:46:51.389Z,1.10
2019-06-15T10:47:51.375Z,1.30
2019-06-15T10:48:51.361Z,1.00
2019-06-15T10:49:51.341Z,1.10
2019-06-15T10:50:51.328Z,1.10
2019-06-15T10:51:51.334Z,1.00
2019-06-15T10:52:51.334Z,1.20
2019-06-15T10:53:51.303Z,1.20
2019-06-15T10:54:51.284Z,1.00
2019-06-15T10:55:51.289Z,1.10
2019-06-15T10:56:51.281Z,1.10
2019-06-15T10:57:51.263Z,1.10
2019-06-15T10:58:51.240Z,1.00
2019-06-15T10:59:57.461Z,1.20
2019-06-15T11:00:52.223Z,1.00
2019-06-15T11:01:51.235Z,1.10
2019-06-15T11:02:51.202Z,1.10
2019-06-15T11:03:51.202Z,1.20
2019-06-15T11:04:51.184Z,1.10
2019-06-15T11:05:54.629Z,1.10
2019-06-15T11:06:51.157Z,1.30
2019-06-15T11:07:51.170Z,1.20
2019-06-15T11:08:51.138Z,1.30
2019-06-15T11:09:51.120Z,1.30
2019-06-15T11:10:51.129Z,1.20
2019-06-15T11:11:51.097Z,1.20
2019-06-15T11:12:51.122Z,1.50
2019-06-15T11:13:51.087Z,1.30
2019-06-15T11:14:51.080Z,1.40
2019-06-15T11:15:51.061Z,1.30
2019-06-15T11:16:51.043Z,1.30
2019-06-15T11:17:51.058Z,1.30
2019-06-15T11:18:51.051Z,1.30
2019-06-15T11:19:51.009Z,1.20
2019-06-15T11:20:51.012Z,1.20
2019-06-15T11:21:51.031Z,1.30
2019-06-15T11:22:51.003Z,1.30
2019-06-15T11:23:51.012Z,1.30
2019-06-15T11:24:50.976Z,1.30
2019-06-15T11:25:50.960Z,1.10
2019-06-15T11:26:50.940Z,1.30
2019-06-15T11:27:50.966Z,1.30
2019-06-15T11:28:50.918Z,1.30
2019-06-15T11:29:50.925Z,1.20
2019-06-15T11:30:50.893Z,1.20
2019-06-15T11:31:50.892Z,1.20
2019-06-15T11:32:50.898Z,1.50
2019-06-15T11:33:50.865Z,1.10
2019-06-15T11:34:50.855Z,1.30
2019-06-15T11:35:50.851Z,1.30
2019-06-15T11:36:50.827Z,1.10
2019-06-15T11:37:50.841Z,1.40
2019-06-15T11:38:50.813Z,1.20
2019-06-15T11:39:50.813Z,1.30
2019-06-15T11:40:50.797Z,1.40
2019-06-15T11:41:50.803Z,1.30
2019-06-15T11:42:50.790Z,1.20
2019-06-15T11:43:50.752Z,1.30
2019-06-15T11:44:50.750Z,1.30
2019-06-15T11:45:50.748Z,1.20
2019-06-15T11:46:50.735Z,1.30
2019-06-15T11:47:50.745Z,1.30
2019-06-15T11:48:50.700Z,1.10
2019-06-15T11:49:50.693Z,1.20
2019-06-15T11:50:50.689Z,1.20
2019-06-15T11:51:50.669Z,1.30
2019-06-15T11:52:50.690Z,1.30
2019-06-15T11:53:50.666Z,1.20
2019-06-15T11:54:50.684Z,1.10
2019-06-15T11:55:50.619Z,1.30
2019-06-15T11:56:50.624Z,1.00
2019-06-15T11:57:50.607Z,1.20
2019-06-15T11:58:50.620Z,1.30
2019-06-15T11:59:50.612Z,1.20
2019-06-15T12:00:50.570Z,1.10
2019-06-15T12:01:50.561Z,1.40
2019-06-15T12:02:50.555Z,1.10
2019-06-15T12:03:50.571Z,1.30
2019-06-15T12:04:58.320Z,1.20
2019-06-15T12:05:51.551Z,1.30
2019-06-15T12:06:50.514Z,1.20
2019-06-15T12:07:50.510Z,1.10
2019-06-15T12:08:50.496Z,1.10
2019-06-15T12:09:50.491Z,1.30
2019-06-15T12:10:50.504Z,1.30
2019-06-15T12:11:50.467Z,1.20
2019-06-15T12:12:50.464Z,1.20
2019-06-15T12:13:50.448Z,1.10
2019-06-15T12:14:50.422Z,1.20
2019-06-15T12:15:50.411Z,1.20
2019-06-15T12:16:50.410Z,1.20
2019-06-15T12:17:50.439Z,1.10
2019-06-15T12:18:50.380Z,1.20
2019-06-15T12:19:50.392Z,1.30
2019-06-15T12:20:50.359Z,1.20
2019-06-15T12:21:50.352Z,1.30
2019-06-15T12:22:50.636Z,1.30
2019-06-15T12:23:50.324Z,1.10
2019-06-15T12:24:50.319Z,1.10
2019-06-15T12:25:50.330Z,1.10
2019-06-15T12:26:50.294Z,1.20
2019-06-15T12:27:50.310Z,1.20
2019-06-15T12:28:50.273Z,1.20
2019-06-15T12:29:50.278Z,1.30
2019-06-15T12:30:50.271Z,1.30
2019-06-15T12:31:50.259Z,1.20
2019-06-15T12:32:50.230Z,1.10
2019-06-15T12:33:50.213Z,1.20
2019-06-15T12:34:50.210Z,1.30
2019-06-15T12:35:50.211Z,1.00
2019-06-15T12:36:50.187Z,1.20
2019-06-15T12:37:50.201Z,1.10
2019-06-15T12:38:50.178Z,1.20
2019-06-15T12:39:50.334Z,1.30
2019-06-15T12:40:50.172Z,1.40
2019-06-15T12:41:50.136Z,1.20
2019-06-15T12:42:50.117Z,1.20
2019-06-15T12:43:50.131Z,1.30
2019-06-15T12:44:50.122Z,1.20
2019-06-15T12:45:50.099Z,1.10
2019-06-15T12:46:50.084Z,1.30
2019-06-15T12:47:50.088Z,1.30
2019-06-15T12:48:50.080Z,1.50
2019-06-15T12:49:50.051Z,1.20
2019-06-15T12:50:50.071Z,1.10
2019-06-15T12:51:50.022Z,1.40
2019-06-15T12:52:50.024Z,1.50
2019-06-15T12:53:50.038Z,1.40
2019-06-15T12:54:50.017Z,1.30
2019-06-15T12:55:49.987Z,1.40
2019-06-15T12:56:49.991Z,1.20
2019-06-15T12:57:52.806Z,1.20
2019-06-15T12:58:49.959Z,1.10
2019-06-15T12:59:49.948Z,1.30
2019-06-15T13:01:02.160Z,1.40
2019-06-15T13:01:50.909Z,1.40
2019-06-15T13:02:49.919Z,1.40
2019-06-15T13:03:49.915Z,1.40
2019-06-15T13:04:49.896Z,1.50
2019-06-15T13:05:49.895Z,1.20
2019-06-15T13:06:49.878Z,1.50
2019-06-15T13:07:49.868Z,1.50
2019-06-15T13:08:49.892Z,1.30
2019-06-15T13:09:50.000Z,1.50
2019-06-15T13:10:49.820Z,1.30
2019-06-15T13:11:49.814Z,1.40
2019-06-15T13:12:49.818Z,1.50
2019-06-15T13:13:49.817Z,1.50
2019-06-15T13:14:49.791Z,1.40
2019-06-15T13:15:49.763Z,1.30
2019-06-15T13:16:49.754Z,1.40
2019-06-15T13:17:49.759Z,1.50
2019-06-15T13:18:49.754Z,1.30